createdAt,value
2023-06-25T00:00:21.344Z,96.73
2023-06-25T00:01:21.434Z,97.28
2023-06-25T00:02:21.427Z,97.49
2023-06-25T00:03:21.387Z,97.28
2023-06-25T00:04:21.330Z,97.28
2023-06-25T00:05:21.321Z,97.28
2023-06-25T00:06:21.264Z,97.38
2023-06-25T00:07:21.415Z,97.58
2023-06-25T00:08:21.303Z,97.69
2023-06-25T00:09:21.237Z,97.89
2023-06-25T00:10:21.213Z,98.09
2023-06-25T00:11:21.204Z,98.09
2023-06-25T00:12:21.220Z,98.44
2023-06-25T00:13:21.171Z,98.54
2023-06-25T00:14:21.180Z,98.54
2023-06-25T00:15:21.245Z,98.64
2023-06-25T00:16:21.193Z,98.74
2023-06-25T00:17:21.172Z,98.84
2023-06-25T00:18:21.137Z,98.54
2023-06-25T00:19:21.129Z,98.54
2023-06-25T00:20:21.103Z,98.74
2023-06-25T00:21:21.095Z,98.74
2023-06-25T00:22:21.140Z,98.84
2023-06-25T00:23:21.077Z,99.14
2023-06-25T00:24:21.079Z,99.14
2023-06-25T00:25:21.092Z,99.34
2023-06-25T00:26:21.073Z,99.34
2023-06-25T00:27:21.008Z,99.65
2023-06-25T00:28:21.050Z,99.89
2023-06-25T00:29:21.040Z,99.99
2023-06-25T00:30:23.237Z,99.99
2023-06-25T00:31:21.016Z,99.99
2023-06-25T00:32:21.099Z,99.99
2023-06-25T00:33:21.050Z,99.99
2023-06-25T00:34:20.994Z,99.99
2023-06-25T00:35:21.000Z,99.99
2023-06-25T00:36:20.930Z,99.99
2023-06-25T00:37:20.992Z,99.99
2023-06-25T00:38:20.920Z,99.99
2023-06-25T00:39:20.899Z,99.99
2023-06-25T00:40:20.896Z,99.99
2023-06-25T00:41:20.891Z,99.99
2023-06-25T00:42:21.496Z,99.99
2023-06-25T00:43:20.852Z,99.99
2023-06-25T00:44:20.872Z,99.99
2023-06-25T00:45:20.832Z,99.99
2023-06-25T00:46:21.469Z,99.99
2023-06-25T00:47:20.813Z,99.99
2023-06-25T00:48:20.834Z,99.99
2023-06-25T00:49:20.784Z,99.89
2023-06-25T00:50:20.838Z,99.49
2023-06-25T00:51:20.747Z,99.19
2023-06-25T00:52:30.814Z,99.19
2023-06-25T00:53:30.748Z,99.39
2023-06-25T00:54:30.760Z,99.64
2023-06-25T00:55:31.922Z,99.74
2023-06-25T00:56:20.764Z,99.84
2023-06-25T00:57:20.675Z,99.99
2023-06-25T00:58:20.696Z,99.74
2023-06-25T00:59:20.674Z,99.54
2023-06-25T01:00:20.656Z,99.64
2023-06-25T01:01:20.741Z,99.84
2023-06-25T01:02:20.651Z,99.99
2023-06-25T01:03:20.738Z,99.99
2023-06-25T01:04:20.677Z,99.99
2023-06-25T01:05:20.595Z,99.99
2023-06-25T01:06:31.786Z,99.99
2023-06-25T01:07:20.746Z,99.99
2023-06-25T01:08:31.693Z,99.99
2023-06-25T01:09:20.582Z,99.99
2023-06-25T01:10:20.589Z,99.99
2023-06-25T01:11:20.544Z,99.99
2023-06-25T01:12:20.548Z,99.99
2023-06-25T01:13:28.146Z,99.99
2023-06-25T01:14:20.574Z,99.99
2023-06-25T01:15:20.520Z,99.99
2023-06-25T01:16:20.571Z,99.99
2023-06-25T01:17:20.551Z,99.99
2023-06-25T01:18:20.510Z,99.99
2023-06-25T01:19:20.494Z,99.99
2023-06-25T01:20:20.485Z,99.99
2023-06-25T01:21:20.447Z,99.99
2023-06-25T01:22:20.448Z,99.99
2023-06-25T01:23:20.445Z,99.99
2023-06-25T01:24:20.443Z,99.99
2023-06-25T01:25:20.419Z,99.99
2023-06-25T01:26:20.401Z,99.99
2023-06-25T01:27:20.386Z,99.99
2023-06-25T01:28:20.383Z,99.99
2023-06-25T01:29:20.369Z,99.99
2023-06-25T01:30:20.405Z,99.99
2023-06-25T01:31:20.352Z,99.99
2023-06-25T01:32:20.368Z,99.99
2023-06-25T01:33:20.314Z,99.99
2023-06-25T01:34:20.315Z,99.99
2023-06-25T01:35:20.321Z,99.99
2023-06-25T01:36:20.321Z,99.99
2023-06-25T01:37:20.281Z,99.99
2023-06-25T01:38:20.272Z,99.99
2023-06-25T01:39:20.253Z,99.88
2023-06-25T01:40:20.282Z,99.99
2023-06-25T01:41:20.256Z,99.99
2023-06-25T01:42:20.265Z,99.88
2023-06-25T01:43:20.207Z,99.73
2023-06-25T01:44:21.739Z,99.73
2023-06-25T01:45:20.191Z,99.73
2023-06-25T01:46:20.253Z,99.63
2023-06-25T01:47:20.259Z,99.73
2023-06-25T01:48:20.242Z,99.93
2023-06-25T01:49:30.831Z,99.99
2023-06-25T01:50:21.168Z,99.99
2023-06-25T01:51:20.134Z,99.99
2023-06-25T01:52:20.137Z,99.99
2023-06-25T01:53:20.131Z,99.99
2023-06-25T01:54:20.112Z,99.99
2023-06-25T01:55:20.116Z,99.99
2023-06-25T01:56:20.086Z,99.99
2023-06-25T01:57:20.074Z,99.99
2023-06-25T01:58:20.047Z,99.99
2023-06-25T01:59:20.061Z,99.99
2023-06-25T02:00:20.030Z,99.99
2023-06-25T02:01:20.040Z,99.99
2023-06-25T02:02:20.046Z,99.99
2023-06-25T02:03:20.090Z,99.99
2023-06-25T02:04:19.996Z,99.99
2023-06-25T02:05:20.013Z,99.99
2023-06-25T02:06:19.968Z,99.99
2023-06-25T02:07:20.067Z,99.99
2023-06-25T02:08:19.963Z,99.99
2023-06-25T02:09:19.946Z,99.99
2023-06-25T02:10:19.945Z,99.99
2023-06-25T02:11:19.900Z,99.99
2023-06-25T02:12:19.908Z,99.99
2023-06-25T02:13:19.913Z,99.99
2023-06-25T02:14:30.913Z,99.99
2023-06-25T02:17:39.458Z,99.99
2023-06-25T02:18:39.406Z,99.99
2023-06-25T02:19:39.362Z,99.99
2023-06-25T02:20:39.333Z,99.99
2023-06-25T02:21:39.388Z,99.99
2023-06-25T02:22:39.391Z,99.99
2023-06-25T02:23:39.346Z,99.99
2023-06-25T02:24:39.293Z,99.99
2023-06-25T02:25:39.529Z,99.99
2023-06-25T02:26:39.320Z,99.99
2023-06-25T02:27:39.267Z,99.99
2023-06-25T02:28:39.357Z,99.99
2023-06-25T02:29:39.238Z,99.99
2023-06-25T02:30:39.278Z,99.99
2023-06-25T02:31:39.276Z,99.99
2023-06-25T02:32:39.271Z,99.99
2023-06-25T02:33:39.243Z,99.99
2023-06-25T02:34:39.192Z,99.99
2023-06-25T02:35:39.343Z,99.99
2023-06-25T02:36:39.167Z,99.99
2023-06-25T02:37:39.201Z,99.99
2023-06-25T02:38:39.177Z,99.99
2023-06-25T02:39:39.179Z,99.99
2023-06-25T02:40:39.126Z,99.99
2023-06-25T02:41:39.127Z,99.99
2023-06-25T02:42:39.683Z,99.99
2023-06-25T02:43:39.090Z,99.99
2023-06-25T02:44:39.078Z,99.99
2023-06-25T02:45:39.246Z,99.99
2023-06-25T02:46:39.087Z,99.99
2023-06-25T02:47:39.077Z,99.99
2023-06-25T02:48:39.030Z,99.99
2023-06-25T02:49:39.102Z,99.99
2023-06-25T02:50:39.009Z,99.99
2023-06-25T02:51:39.030Z,99.99
2023-06-25T02:52:39.011Z,99.99
2023-06-25T02:53:39.009Z,99.99
2023-06-25T02:54:39.003Z,99.99
2023-06-25T02:55:39.181Z,99.99
2023-06-25T02:56:38.944Z,99.99
2023-06-25T02:57:38.978Z,99.99
2023-06-25T02:58:38.961Z,99.99
2023-06-25T02:59:38.960Z,99.99
2023-06-25T03:00:38.913Z,99.99
2023-06-25T03:01:38.972Z,99.99
2023-06-25T03:02:38.990Z,99.99
2023-06-25T03:03:38.917Z,99.99
2023-06-25T03:04:38.851Z,99.99
2023-06-25T03:05:39.097Z,99.99
2023-06-25T03:06:38.842Z,99.99
2023-06-25T03:07:38.868Z,99.99
2023-06-25T03:08:38.875Z,99.99
2023-06-25T03:09:38.837Z,99.99
2023-06-25T03:10:38.825Z,99.99
2023-06-25T03:11:38.826Z,99.99
2023-06-25T03:12:38.782Z,99.99
2023-06-25T03:13:38.772Z,99.99
2023-06-25T03:14:38.800Z,99.99
2023-06-25T03:15:38.898Z,99.99
2023-06-25T03:16:38.737Z,99.99
2023-06-25T03:17:38.794Z,99.99
2023-06-25T03:18:38.714Z,99.99
2023-06-25T03:19:38.731Z,99.99
2023-06-25T03:20:38.723Z,99.99
2023-06-25T03:21:38.688Z,99.99
2023-06-25T03:22:38.686Z,99.99
2023-06-25T03:23:38.688Z,99.99
2023-06-25T03:24:38.632Z,99.99
2023-06-25T03:25:38.984Z,99.99
2023-06-25T03:26:38.618Z,99.99
2023-06-25T03:27:38.680Z,99.99
2023-06-25T03:28:38.591Z,99.99
2023-06-25T03:29:38.608Z,99.99
2023-06-25T03:30:38.582Z,99.99
2023-06-25T03:31:38.624Z,99.99
2023-06-25T03:32:38.677Z,99.99
2023-06-25T03:33:38.683Z,99.99
2023-06-25T03:34:38.551Z,99.99
2023-06-25T03:35:38.812Z,99.99
2023-06-25T03:36:38.525Z,99.99
2023-06-25T03:37:38.553Z,99.99
2023-06-25T03:38:38.500Z,99.99
2023-06-25T03:39:38.492Z,99.99
2023-06-25T03:40:38.468Z,99.99
2023-06-25T03:41:38.452Z,99.99
2023-06-25T03:42:38.438Z,99.99
2023-06-25T03:43:38.445Z,99.99
2023-06-25T03:44:38.407Z,99.99
2023-06-25T03:45:38.667Z,99.99
2023-06-25T03:46:38.404Z,99.99
2023-06-25T03:47:38.465Z,99.99
2023-06-25T03:48:38.391Z,99.99
2023-06-25T03:49:38.353Z,99.99
2023-06-25T03:50:38.347Z,99.99
2023-06-25T03:51:38.493Z,99.99
2023-06-25T03:52:38.337Z,99.99
2023-06-25T03:53:38.365Z,99.99
2023-06-25T03:54:38.329Z,99.99
2023-06-25T03:55:38.553Z,99.99
2023-06-25T03:56:38.301Z,99.99
2023-06-25T03:57:38.268Z,99.99
2023-06-25T03:58:38.268Z,99.99
2023-06-25T03:59:38.305Z,99.99
2023-06-25T04:00:38.321Z,99.99
2023-06-25T04:01:38.284Z,99.99
2023-06-25T04:02:38.291Z,99.99
2023-06-25T04:03:38.262Z,99.99
2023-06-25T04:04:38.319Z,99.99
2023-06-25T04:05:38.469Z,99.99
2023-06-25T04:06:38.176Z,99.99
2023-06-25T04:07:38.210Z,99.99
2023-06-25T04:08:38.165Z,99.99
2023-06-25T04:09:38.148Z,99.99
2023-06-25T04:10:38.136Z,99.99
2023-06-25T04:11:38.117Z,99.99
2023-06-25T04:12:38.187Z,99.99
2023-06-25T04:13:38.116Z,99.99
2023-06-25T04:14:38.149Z,99.99
2023-06-25T04:15:38.435Z,99.99
2023-06-25T04:16:38.088Z,99.99
2023-06-25T04:17:38.114Z,99.99
2023-06-25T04:18:38.043Z,99.99
2023-06-25T04:19:38.078Z,99.99
2023-06-25T04:20:38.030Z,99.99
2023-06-25T04:21:38.022Z,99.99
2023-06-25T04:22:38.048Z,99.99
2023-06-25T04:23:38.011Z,99.99
2023-06-25T04:24:37.993Z,99.99
2023-06-25T04:25:38.115Z,99.99
2023-06-25T04:26:38.016Z,99.99
2023-06-25T04:27:37.968Z,99.99
2023-06-25T04:28:37.938Z,99.99
2023-06-25T04:29:37.946Z,99.99
2023-06-25T04:30:37.917Z,99.99
2023-06-25T04:31:37.966Z,99.99
2023-06-25T04:32:37.944Z,99.99
2023-06-25T04:33:37.893Z,99.99
2023-06-25T04:34:37.878Z,99.99
2023-06-25T04:35:38.090Z,99.99
2023-06-25T04:36:37.846Z,99.99
2023-06-25T04:37:37.892Z,99.99
2023-06-25T04:38:37.835Z,99.99
2023-06-25T04:39:37.841Z,99.99
2023-06-25T04:40:37.853Z,99.99
2023-06-25T04:41:37.811Z,99.99
2023-06-25T04:42:37.808Z,99.99
2023-06-25T04:43:37.807Z,99.99
2023-06-25T04:44:37.801Z,99.99
2023-06-25T04:45:38.027Z,99.99
2023-06-25T04:46:37.748Z,99.99
2023-06-25T04:47:37.769Z,99.99
2023-06-25T04:48:37.707Z,99.99
2023-06-25T04:49:37.726Z,99.99
2023-06-25T04:50:37.716Z,99.99
2023-06-25T04:51:37.669Z,99.99
2023-06-25T04:52:37.666Z,99.99
2023-06-25T04:53:37.822Z,99.99
2023-06-25T04:54:37.636Z,99.99
2023-06-25T04:55:37.824Z,99.99
2023-06-25T04:56:37.675Z,99.99
2023-06-25T04:57:37.627Z,99.99
2023-06-25T04:58:39.341Z,99.99
2023-06-25T04:59:37.607Z,99.99
2023-06-25T05:00:37.678Z,99.99
2023-06-25T05:01:37.640Z,99.99
2023-06-25T05:02:37.622Z,99.99
2023-06-25T05:03:37.592Z,99.99
2023-06-25T05:04:37.581Z,99.99
2023-06-25T05:05:37.753Z,99.99
2023-06-25T05:06:37.527Z,99.99
2023-06-25T05:07:37.515Z,99.99
2023-06-25T05:08:37.533Z,99.99
2023-06-25T05:09:37.494Z,99.99
2023-06-25T05:10:37.494Z,99.99
2023-06-25T05:11:37.480Z,99.99
2023-06-25T05:12:37.462Z,99.99
2023-06-25T05:13:37.451Z,99.99
2023-06-25T05:14:37.442Z,99.99
2023-06-25T05:15:37.601Z,99.60
2023-06-25T05:16:37.396Z,99.19
2023-06-25T05:17:37.426Z,98.99
2023-06-25T05:18:37.436Z,98.85
2023-06-25T05:19:37.417Z,98.54
2023-06-25T05:20:37.415Z,98.34
2023-06-25T05:21:37.418Z,98.14
2023-06-25T05:22:37.350Z,97.94
2023-06-25T05:23:37.344Z,97.74
2023-06-25T05:24:37.422Z,97.64
2023-06-25T05:25:38.083Z,97.39
2023-06-25T05:26:37.308Z,96.98
2023-06-25T05:27:37.333Z,96.69
2023-06-25T05:28:37.312Z,96.19
2023-06-25T05:29:37.321Z,96.19
2023-06-25T05:30:37.255Z,95.98
2023-06-25T05:31:37.532Z,95.78
2023-06-25T05:32:37.265Z,95.68
2023-06-25T05:33:37.221Z,95.78
2023-06-25T05:34:37.194Z,95.43
2023-06-25T05:35:37.469Z,95.43
2023-06-25T05:36:37.248Z,95.43
2023-06-25T05:37:37.208Z,95.33
2023-06-25T05:38:37.195Z,95.53
2023-06-25T05:39:37.225Z,95.18
2023-06-25T05:40:37.181Z,94.48
2023-06-25T05:41:37.176Z,94.38
2023-06-25T05:42:37.143Z,93.98
2023-06-25T05:43:37.142Z,93.58
2023-06-25T05:44:37.116Z,93.38
2023-06-25T05:45:37.497Z,93.33
2023-06-25T05:46:37.104Z,93.63
2023-06-25T05:47:37.172Z,93.23
2023-06-25T05:48:37.772Z,92.93
2023-06-25T05:49:37.063Z,92.63
2023-06-25T05:50:37.043Z,92.29
2023-06-25T05:51:37.037Z,91.78
2023-06-25T05:52:37.042Z,92.08
2023-06-25T05:53:37.030Z,92.58
2023-06-25T05:54:37.027Z,92.74
2023-06-25T05:55:37.336Z,91.74
2023-06-25T05:56:37.177Z,91.24
2023-06-25T05:57:36.974Z,91.34
2023-06-25T05:58:37.010Z,91.54
2023-06-25T05:59:36.946Z,91.54
2023-06-25T06:00:36.926Z,90.79
2023-06-25T06:01:37.053Z,90.89
2023-06-25T06:02:36.945Z,90.19
2023-06-25T06:03:37.084Z,89.79
2023-06-25T06:04:36.894Z,89.18
2023-06-25T06:05:37.149Z,89.14
2023-06-25T06:06:36.922Z,89.04
2023-06-25T06:07:36.869Z,88.44
2023-06-25T06:08:36.881Z,88.54
2023-06-25T06:09:36.938Z,88.54
2023-06-25T06:10:36.876Z,87.30
2023-06-25T06:11:36.825Z,87.20
2023-06-25T06:12:36.807Z,87.40
2023-06-25T06:13:36.799Z,87.20
2023-06-25T06:14:36.828Z,86.30
2023-06-25T06:15:37.015Z,85.99
2023-06-25T06:16:36.790Z,85.46
2023-06-25T06:17:36.764Z,85.75
2023-06-25T06:18:36.723Z,86.16
2023-06-25T06:19:36.710Z,86.25
2023-06-25T06:20:36.708Z,85.96
2023-06-25T06:21:36.704Z,84.75
2023-06-25T06:22:36.739Z,84.91
2023-06-25T06:23:36.708Z,84.91
2023-06-25T06:24:36.688Z,85.01
2023-06-25T06:25:36.936Z,85.21
2023-06-25T06:26:36.798Z,86.41
2023-06-25T06:27:36.647Z,85.11
2023-06-25T06:28:36.649Z,84.51
2023-06-25T06:29:36.625Z,84.17
2023-06-25T06:30:36.666Z,83.67
2023-06-25T06:31:36.589Z,84.47
2023-06-25T06:32:36.641Z,83.17
2023-06-25T06:33:37.779Z,83.57
2023-06-25T06:34:36.571Z,83.13
2023-06-25T06:35:36.917Z,83.93
2023-06-25T06:36:36.566Z,84.03
2023-06-25T06:37:36.556Z,83.53
2023-06-25T06:38:36.580Z,83.33
2023-06-25T06:39:36.517Z,82.89
2023-06-25T06:40:36.504Z,82.89
2023-06-25T06:41:36.498Z,82.79
2023-06-25T06:42:36.476Z,83.49
2023-06-25T06:43:36.467Z,82.99
2023-06-25T06:44:36.507Z,82.95
2023-06-25T06:45:36.638Z,82.05
2023-06-25T06:46:36.448Z,82.05
2023-06-25T06:47:36.510Z,81.35
2023-06-25T06:48:36.449Z,81.75
2023-06-25T06:49:36.396Z,80.76
2023-06-25T06:50:36.471Z,80.65
2023-06-25T06:51:36.368Z,81.25
2023-06-25T06:52:36.416Z,82.01
2023-06-25T06:53:36.355Z,81.61
2023-06-25T06:54:36.381Z,81.12
2023-06-25T06:55:36.442Z,80.82
2023-06-25T06:56:36.360Z,81.21
2023-06-25T06:57:37.518Z,81.18
2023-06-25T06:58:36.300Z,80.77
2023-06-25T06:59:36.328Z,80.98
2023-06-25T07:00:36.289Z,80.54
2023-06-25T07:01:36.295Z,80.44
2023-06-25T07:02:36.313Z,79.94
2023-06-25T07:03:36.255Z,79.04
2023-06-25T07:04:36.230Z,79.94
2023-06-25T07:05:36.523Z,80.14
2023-06-25T07:06:36.233Z,79.90
2023-06-25T07:07:36.198Z,79.60
2023-06-25T07:08:36.190Z,79.00
2023-06-25T07:09:36.188Z,78.80
2023-06-25T07:10:36.284Z,79.20
2023-06-25T07:11:36.131Z,79.06
2023-06-25T07:12:36.162Z,78.47
2023-06-25T07:13:36.124Z,78.47
2023-06-25T07:14:36.121Z,77.73
2023-06-25T07:15:36.334Z,78.13
2023-06-25T07:16:36.104Z,77.23
2023-06-25T07:17:36.096Z,76.40
2023-06-25T07:18:36.122Z,76.30
2023-06-25T07:19:36.095Z,76.60
2023-06-25T07:20:36.158Z,75.80
2023-06-25T07:21:36.027Z,75.31
2023-06-25T07:22:36.042Z,75.31
2023-06-25T07:23:36.074Z,75.60
2023-06-25T07:24:36.063Z,75.20
2023-06-25T07:25:36.126Z,76.10
2023-06-25T07:26:36.008Z,75.80
2023-06-25T07:27:35.977Z,74.97
2023-06-25T07:28:36.033Z,73.87
2023-06-25T07:29:35.958Z,74.17
2023-06-25T07:30:35.973Z,73.14
2023-06-25T07:31:35.983Z,74.04
2023-06-25T07:32:35.947Z,73.24
2023-06-25T07:33:35.902Z,72.61
2023-06-25T07:34:35.933Z,71.31
2023-06-25T07:35:36.237Z,70.92
2023-06-25T07:36:35.888Z,69.82
2023-06-25T07:37:38.440Z,69.09
2023-06-25T07:38:35.865Z,68.10
2023-06-25T07:39:35.839Z,69.49
2023-06-25T07:40:35.845Z,69.39
2023-06-25T07:41:35.842Z,68.76
2023-06-25T07:42:35.841Z,68.57
2023-06-25T07:43:35.835Z,67.97
2023-06-25T07:44:50.443Z,67.57
2023-06-25T07:45:37.108Z,67.67
2023-06-25T07:46:35.835Z,67.74
2023-06-25T07:47:35.840Z,67.74
2023-06-25T07:48:35.783Z,68.73
2023-06-25T07:49:35.750Z,68.20
2023-06-25T07:50:35.726Z,67.01
2023-06-25T07:51:35.711Z,66.51
2023-06-25T07:52:35.719Z,66.91
2023-06-25T07:53:35.704Z,64.99
2023-06-25T07:54:35.728Z,65.49
2023-06-25T07:55:40.198Z,64.89
2023-06-25T07:56:36.674Z,64.89
2023-06-25T07:57:35.636Z,64.59
2023-06-25T07:58:35.642Z,64.20
2023-06-25T07:59:51.262Z,64.79
2023-06-25T08:00:36.679Z,63.90
2023-06-25T08:01:35.616Z,63.90
2023-06-25T08:02:35.660Z,63.90
2023-06-25T08:03:35.718Z,62.61
2023-06-25T08:04:35.643Z,63.21
2023-06-25T08:05:35.866Z,62.91
2023-06-25T08:06:35.563Z,63.21
2023-06-25T08:07:35.585Z,63.08
2023-06-25T08:08:35.618Z,63.97
2023-06-25T08:09:35.527Z,63.08
2023-06-25T08:10:35.531Z,62.65
2023-06-25T08:11:35.582Z,62.26
2023-06-25T08:12:35.517Z,60.86
2023-06-25T08:13:35.487Z,61.56
2023-06-25T08:14:35.490Z,61.96
2023-06-25T08:16:32.391Z,62.02
2023-06-25T08:17:32.419Z,62.02
2023-06-25T08:18:32.357Z,61.13
2023-06-25T08:19:32.361Z,61.13
2023-06-25T08:20:32.338Z,61.43
2023-06-25T08:21:32.347Z,59.12
2023-06-25T08:22:32.309Z,55.66
2023-06-25T08:23:32.320Z,57.34
2023-06-25T08:24:32.290Z,57.04
2023-06-25T08:25:32.281Z,57.14
2023-06-25T08:26:32.265Z,57.34
2023-06-25T08:27:32.277Z,56.65
2023-06-25T08:28:32.260Z,57.64
2023-06-25T08:29:32.257Z,56.05
2023-06-25T08:30:32.318Z,55.33
2023-06-25T08:31:32.248Z,55.43
2023-06-25T08:32:32.261Z,56.02
2023-06-25T08:33:32.200Z,56.52
2023-06-25T08:34:32.185Z,56.92
2023-06-25T08:35:32.189Z,55.93
2023-06-25T08:36:32.170Z,56.13
2023-06-25T08:37:32.159Z,55.93
2023-06-25T08:38:32.135Z,54.74
2023-06-25T08:39:32.157Z,56.00
2023-06-25T08:40:32.137Z,54.81
2023-06-25T08:41:33.094Z,54.81
2023-06-25T08:42:32.090Z,53.92
2023-06-25T08:43:32.100Z,55.08
2023-06-25T08:44:32.061Z,53.60
2023-06-25T08:45:32.093Z,50.63
2023-06-25T08:46:32.148Z,52.01
2023-06-25T08:47:32.124Z,52.41
2023-06-25T08:48:32.060Z,51.92
2023-06-25T08:49:32.106Z,51.92
2023-06-25T08:50:32.003Z,52.71
2023-06-25T08:51:32.070Z,52.91
2023-06-25T08:52:32.067Z,53.60
2023-06-25T08:53:32.046Z,53.20
2023-06-25T08:54:31.952Z,52.78
2023-06-25T08:55:31.959Z,52.58
2023-06-25T08:56:31.958Z,51.20
2023-06-25T08:57:31.934Z,52.29
2023-06-25T08:58:31.914Z,53.18
2023-06-25T08:59:31.925Z,53.47
2023-06-25T09:00:31.923Z,53.67
2023-06-25T09:01:31.903Z,52.88
2023-06-25T09:02:31.938Z,51.20
2023-06-25T09:03:31.952Z,51.99
2023-06-25T09:04:31.849Z,50.71
2023-06-25T09:05:31.858Z,50.41
2023-06-25T09:06:31.827Z,51.10
2023-06-25T09:07:31.871Z,52.48
2023-06-25T09:08:31.804Z,53.18
2023-06-25T09:09:31.822Z,53.08
2023-06-25T09:10:31.793Z,51.99
2023-06-25T09:11:31.793Z,52.95
2023-06-25T09:12:31.775Z,52.66
2023-06-25T09:13:31.776Z,51.87
2023-06-25T09:14:31.750Z,52.46
2023-06-25T09:15:31.749Z,52.46
2023-06-25T09:16:31.735Z,50.46
2023-06-25T09:17:31.747Z,50.07
2023-06-25T09:18:31.792Z,48.98
2023-06-25T09:19:31.735Z,50.16
2023-06-25T09:20:31.688Z,50.76
2023-06-25T09:21:31.696Z,51.25
2023-06-25T09:22:31.668Z,50.26
2023-06-25T09:23:31.686Z,50.66
2023-06-25T09:24:31.654Z,50.63
2023-06-25T09:25:31.834Z,49.55
2023-06-25T09:26:31.640Z,51.23
2023-06-25T09:27:31.630Z,50.14
2023-06-25T09:28:31.613Z,50.14
2023-06-25T09:29:31.606Z,50.43
2023-06-25T09:30:31.597Z,50.24
2023-06-25T09:31:31.618Z,50.63
2023-06-25T09:32:31.608Z,50.41
2023-06-25T09:33:31.554Z,51.40
2023-06-25T09:34:31.546Z,50.41
2023-06-25T09:35:31.544Z,51.10
2023-06-25T09:36:39.203Z,49.60
2023-06-25T09:37:32.529Z,49.79
2023-06-25T09:38:31.496Z,46.74
2023-06-25T09:39:31.505Z,47.23
2023-06-25T09:40:31.492Z,42.89
2023-06-25T09:41:31.472Z,45.38
2023-06-25T09:42:31.445Z,45.87
2023-06-25T09:43:31.471Z,46.56
2023-06-25T09:44:31.437Z,47.57
2023-06-25T09:45:31.448Z,48.24
2023-06-25T09:46:31.446Z,49.62
2023-06-25T09:47:31.464Z,49.52
2023-06-25T09:48:31.408Z,48.14
2023-06-25T09:49:31.385Z,48.51
2023-06-25T09:50:31.367Z,48.71
2023-06-25T09:51:31.386Z,48.12
2023-06-25T09:52:31.348Z,47.43
2023-06-25T09:53:31.367Z,47.82
2023-06-25T09:54:31.331Z,46.44
2023-06-25T09:55:31.338Z,46.76
2023-06-25T09:56:31.307Z,47.65
2023-06-25T09:57:31.302Z,47.45
2023-06-25T09:58:31.296Z,48.04
2023-06-25T09:59:31.293Z,48.16
2023-06-25T10:00:31.274Z,48.66
2023-06-25T10:01:31.338Z,48.74
2023-06-25T10:02:31.610Z,48.54
2023-06-25T10:03:31.376Z,48.14
2023-06-25T10:04:31.232Z,48.14
2023-06-25T10:05:31.220Z,48.44
2023-06-25T10:06:31.215Z,48.63
2023-06-25T10:07:31.339Z,49.40
2023-06-25T10:08:31.184Z,49.28
2023-06-25T10:09:31.186Z,48.29
2023-06-25T10:10:31.191Z,49.45
2023-06-25T10:11:31.369Z,48.86
2023-06-25T10:12:31.150Z,48.25
2023-06-25T10:13:31.144Z,49.04
2023-06-25T10:14:31.122Z,49.30
2023-06-25T10:15:31.181Z,48.13
2023-06-25T10:16:38.956Z,47.44
2023-06-25T10:17:32.164Z,47.95
2023-06-25T10:18:31.124Z,47.95
2023-06-25T10:19:31.068Z,47.85
2023-06-25T10:20:31.079Z,47.48
2023-06-25T10:21:31.054Z,48.17
2023-06-25T10:22:31.053Z,48.96
2023-06-25T10:23:31.045Z,49.26
2023-06-25T10:24:31.008Z,49.65
2023-06-25T10:25:31.026Z,48.14
2023-06-25T10:26:31.011Z,48.14
2023-06-25T10:27:31.971Z,49.35
2023-06-25T10:28:32.443Z,49.85
2023-06-25T10:29:30.972Z,48.69
2023-06-25T10:30:30.960Z,50.07
2023-06-25T10:31:31.112Z,50.56
2023-06-25T10:32:31.241Z,49.35
2023-06-25T10:33:30.963Z,48.17
2023-06-25T10:34:31.418Z,48.66
2023-06-25T10:35:30.913Z,49.16
2023-06-25T10:36:30.882Z,49.06
2023-06-25T10:37:31.856Z,49.06
2023-06-25T10:38:30.868Z,47.26
2023-06-25T10:39:30.875Z,46.97
2023-06-25T10:40:31.625Z,48.14
2023-06-25T10:41:30.862Z,46.77
2023-06-25T10:42:30.822Z,47.56
2023-06-25T10:43:30.847Z,47.66
2023-06-25T10:44:30.804Z,47.95
2023-06-25T10:45:31.777Z,48.35
2023-06-25T10:46:32.530Z,48.14
2023-06-25T10:47:30.800Z,47.56
2023-06-25T10:48:30.780Z,47.75
2023-06-25T10:49:30.776Z,48.71
2023-06-25T10:50:30.742Z,47.63
2023-06-25T10:51:30.755Z,46.92
2023-06-25T10:52:30.727Z,47.02
2023-06-25T10:53:30.732Z,46.62
2023-06-25T10:54:30.712Z,47.22
2023-06-25T10:55:30.690Z,47.31
2023-06-25T10:56:30.682Z,47.31
2023-06-25T10:57:30.705Z,46.13
2023-06-25T10:58:30.666Z,47.44
2023-06-25T10:59:30.658Z,45.45
2023-06-25T11:00:30.660Z,44.76
2023-06-25T11:01:30.733Z,42.47
2023-06-25T11:02:30.710Z,42.47
2023-06-25T11:03:30.666Z,42.47
2023-06-25T11:04:30.657Z,41.29
2023-06-25T11:05:30.594Z,42.65
2023-06-25T11:06:30.571Z,40.39
2023-06-25T11:07:30.597Z,40.98
2023-06-25T11:08:31.440Z,41.47
2023-06-25T11:09:30.564Z,42.16
2023-06-25T11:10:30.552Z,41.86
2023-06-25T11:11:30.542Z,42.28
2023-06-25T11:12:30.537Z,40.70
2023-06-25T11:13:30.499Z,41.09
2023-06-25T11:14:30.507Z,41.19
2023-06-25T11:15:30.492Z,40.80
2023-06-25T11:16:30.485Z,40.88
2023-06-25T11:17:30.506Z,39.70
2023-06-25T11:18:30.457Z,39.92
2023-06-25T11:19:30.482Z,40.70
2023-06-25T11:20:31.179Z,41.80
2023-06-25T11:21:30.420Z,41.41
2023-06-25T11:22:30.415Z,40.92
2023-06-25T11:23:30.420Z,41.71
2023-06-25T11:24:30.395Z,39.74
2023-06-25T11:25:30.414Z,40.23
2023-06-25T11:26:30.690Z,40.53
2023-06-25T11:27:31.399Z,41.83
2023-06-25T11:28:30.356Z,41.33
2023-06-25T11:29:30.351Z,42.00
2023-06-25T11:30:30.555Z,41.71
2023-06-25T11:31:30.348Z,41.83
2023-06-25T11:32:32.656Z,41.85
2023-06-25T11:33:30.284Z,42.93
2023-06-25T11:34:30.287Z,41.75
2023-06-25T11:35:30.296Z,42.22
2023-06-25T11:36:30.301Z,43.10
2023-06-25T11:37:30.289Z,41.71
2023-06-25T11:38:30.273Z,40.13
2023-06-25T11:39:30.236Z,41.22
2023-06-25T11:40:30.270Z,40.43
2023-06-25T11:41:30.213Z,40.92
2023-06-25T11:42:30.243Z,39.84
2023-06-25T11:43:30.203Z,40.13
2023-06-25T11:44:30.210Z,37.65
2023-06-25T11:45:30.190Z,37.65
2023-06-25T11:46:30.179Z,38.76
2023-06-25T11:47:30.180Z,38.76
2023-06-25T11:48:31.184Z,39.32
2023-06-25T11:49:30.122Z,40.90
2023-06-25T11:50:30.144Z,39.92
2023-06-25T11:51:30.130Z,40.70
2023-06-25T11:52:30.148Z,40.41
2023-06-25T11:53:30.098Z,41.98
2023-06-25T11:54:30.086Z,41.00
2023-06-25T11:55:30.090Z,41.22
2023-06-25T11:56:30.097Z,40.94
2023-06-25T11:57:30.058Z,41.02
2023-06-25T11:58:30.256Z,42.00
2023-06-25T11:59:30.064Z,41.09
2023-06-25T12:00:30.048Z,39.72
2023-06-25T12:01:30.108Z,41.08
2023-06-25T12:02:44.532Z,39.68
2023-06-25T12:03:31.248Z,40.16
2023-06-25T12:04:30.110Z,40.17
2023-06-25T12:05:30.021Z,39.00
2023-06-25T12:06:30.106Z,40.39
2023-06-25T12:07:29.970Z,38.90
2023-06-25T12:08:29.968Z,40.94
2023-06-25T12:09:29.949Z,37.78
2023-06-25T12:10:29.942Z,37.76
2023-06-25T12:11:29.908Z,37.56
2023-06-25T12:12:30.285Z,38.35
2023-06-25T12:13:29.896Z,38.54
2023-06-25T12:14:29.893Z,38.76
2023-06-25T12:15:29.870Z,39.56
2023-06-25T12:16:30.351Z,39.48
2023-06-25T12:17:29.881Z,39.39
2023-06-25T12:18:29.850Z,40.37
2023-06-25T12:19:29.834Z,39.37
2023-06-25T12:20:29.826Z,37.56
2023-06-25T12:21:29.812Z,37.17
2023-06-25T12:22:32.272Z,37.15
2023-06-25T12:23:29.797Z,37.25
2023-06-25T12:24:29.790Z,37.82
2023-06-25T12:25:29.759Z,37.94
2023-06-25T12:26:29.780Z,38.33
2023-06-25T12:27:29.760Z,39.61
2023-06-25T12:28:29.757Z,37.65
2023-06-25T12:29:30.696Z,37.45
2023-06-25T12:30:29.723Z,36.96
2023-06-25T12:31:29.751Z,37.96
2023-06-25T12:32:29.799Z,38.54
2023-06-25T12:33:29.695Z,39.01
2023-06-25T12:34:29.710Z,38.33
2023-06-25T12:35:29.691Z,38.53
2023-06-25T12:36:29.677Z,37.23
2023-06-25T12:37:29.728Z,39.11
2023-06-25T12:38:29.655Z,37.73
2023-06-25T12:39:29.658Z,38.21
2023-06-25T12:40:29.626Z,37.13
2023-06-25T12:41:29.606Z,37.21
2023-06-25T12:42:29.612Z,37.79
2023-06-25T12:43:29.598Z,36.51
2023-06-25T12:44:29.594Z,36.59
2023-06-25T12:45:29.570Z,37.85
2023-06-25T12:46:29.557Z,36.63
2023-06-25T12:47:29.570Z,35.94
2023-06-25T12:48:29.560Z,36.24
2023-06-25T12:49:29.554Z,36.15
2023-06-25T12:50:29.556Z,38.08
2023-06-25T12:51:29.519Z,37.79
2023-06-25T12:52:29.524Z,37.87
2023-06-25T12:53:29.491Z,36.57
2023-06-25T12:54:29.490Z,37.14
2023-06-25T12:55:29.485Z,35.66